AAL1534 KDFW-SEGU
Flight info
| Callsign | AAL1534 |
|---|---|
| Flight time | 5h 19m |
| Altitude | 35000 |
| Route | DARTZ9 TNV VUH ANKRR L208 DUTNA UL208 MID UB753 BZE UZ512 LIB UR773 PARRI UM659 DRAKE UM659 ANRAX UM542 MIBAR UL207 RENAR STAR4 |
| Aircraft | B738/M-VGDW/C |
Departure
| Time | 2026-05-06 19:58 |
|---|---|
| Airport | Dallas Fort Worth International Airport (KDFW) |
Arrival
| Time | 2026-05-07 01:17 |
|---|---|
| Airport | José Joaquín de Olmedo International Airport (SEGU) |
| Time | Latitude | Longitude | Altitude | Speed | Heading |
|---|---|---|---|---|---|
| 2026-05-06 19:40 | 32.89712 | -97.04571 | 597 ft | 0 kts | 90° |
| 2026-05-06 19:47 | 32.89712 | -97.04574 | 597 ft | 3 kts | 90° |
| 2026-05-06 19:47 | 32.89711 | -97.04606 | 597 ft | 4 kts | 90° |
| 2026-05-06 19:48 | 32.89713 | -97.04631 | 597 ft | 4 kts | 98° |
| 2026-05-06 19:48 | 32.89719 | -97.04661 | 597 ft | 4 kts | 130° |
| 2026-05-06 19:48 | 32.89737 | -97.04670 | 597 ft | 4 kts | 179° |
| 2026-05-06 19:48 | 32.89755 | -97.04670 | 597 ft | 0 kts | 180° |
| 2026-05-06 19:51 | 32.89740 | -97.04677 | 597 ft | 5 kts | 216° |
| 2026-05-06 19:51 | 32.89723 | -97.04733 | 597 ft | 9 kts | 255° |
| 2026-05-06 19:51 | 32.89677 | -97.04767 | 598 ft | 8 kts | 183° |
| 2026-05-06 19:52 | 32.89619 | -97.04768 | 598 ft | 8 kts | 179° |
| 2026-05-06 19:52 | 32.89564 | -97.04768 | 598 ft | 8 kts | 181° |
| 2026-05-06 19:52 | 32.89510 | -97.04769 | 597 ft | 8 kts | 179° |
| 2026-05-06 19:52 | 32.89457 | -97.04768 | 597 ft | 7 kts | 179° |
| 2026-05-06 19:53 | 32.89412 | -97.04788 | 597 ft | 7 kts | 230° |
| 2026-05-06 19:53 | 32.89403 | -97.04844 | 598 ft | 7 kts | 269° |
| 2026-05-06 19:53 | 32.89374 | -97.04888 | 598 ft | 9 kts | 198° |
| 2026-05-06 19:53 | 32.89284 | -97.04891 | 597 ft | 17 kts | 181° |
| 2026-05-06 19:54 | 32.89142 | -97.04892 | 595 ft | 24 kts | 180° |
| 2026-05-06 19:54 | 32.88963 | -97.04892 | 594 ft | 26 kts | 179° |
| 2026-05-06 19:54 | 32.88790 | -97.04894 | 592 ft | 24 kts | 180° |
| 2026-05-06 19:54 | 32.88630 | -97.04894 | 593 ft | 22 kts | 180° |
| 2026-05-06 19:55 | 32.88481 | -97.04895 | 593 ft | 21 kts | 180° |
| 2026-05-06 19:55 | 32.88335 | -97.04894 | 593 ft | 21 kts | 179° |
| 2026-05-06 19:55 | 32.88193 | -97.04896 | 594 ft | 20 kts | 180° |
| 2026-05-06 19:55 | 32.88056 | -97.04898 | 592 ft | 19 kts | 180° |
| 2026-05-06 19:56 | 32.87942 | -97.04898 | 591 ft | 10 kts | 180° |
| 2026-05-06 19:56 | 32.87911 | -97.04965 | 589 ft | 10 kts | 268° |
| 2026-05-06 19:56 | 32.87911 | -97.05049 | 589 ft | 9 kts | 270° |
| 2026-05-06 19:56 | 32.87953 | -97.05091 | 591 ft | 9 kts | 355° |
| 2026-05-06 19:57 | 32.88021 | -97.05092 | 592 ft | 13 kts | 357° |
| 2026-05-06 19:57 | 32.88229 | -97.05091 | 594 ft | 61 kts | 0° |
| 2026-05-06 19:57 | 32.88888 | -97.05088 | 589 ft | 125 kts | 0° |
| 2026-05-06 19:57 | 32.89914 | -97.05084 | 781 ft | 160 kts | 360° |
| 2026-05-06 19:58 | 32.91021 | -97.05081 | 1437 ft | 164 kts | 359° |
| 2026-05-06 19:58 | 32.92160 | -97.05106 | 2190 ft | 165 kts | 358° |
| 2026-05-06 19:58 | 32.93386 | -97.05160 | 2503 ft | 191 kts | 358° |
| 2026-05-06 19:58 | 32.94758 | -97.05422 | 2721 ft | 213 kts | 345° |
| 2026-05-06 19:59 | 32.96205 | -97.06063 | 3107 ft | 226 kts | 341° |
| 2026-05-06 19:59 | 32.97700 | -97.06732 | 3590 ft | 237 kts | 340° |
| 2026-05-06 19:59 | 32.99308 | -97.07464 | 4001 ft | 252 kts | 330° |
| 2026-05-06 19:59 | 33.00562 | -97.08845 | 4885 ft | 245 kts | 297° |
| 2026-05-06 20:00 | 33.01047 | -97.10794 | 5586 ft | 249 kts | 272° |
| 2026-05-06 20:00 | 33.00988 | -97.12817 | 6550 ft | 238 kts | 264° |
| 2026-05-06 20:00 | 33.00854 | -97.14822 | 7147 ft | 247 kts | 264° |
| 2026-05-06 20:00 | 33.00720 | -97.16841 | 7832 ft | 250 kts | 263° |
| 2026-05-06 20:01 | 33.00482 | -97.18940 | 8333 ft | 262 kts | 261° |
| 2026-05-06 20:01 | 33.00256 | -97.21135 | 8907 ft | 268 kts | 262° |
| 2026-05-06 20:01 | 32.99912 | -97.23306 | 9689 ft | 267 kts | 248° |
| 2026-05-06 20:01 | 32.98959 | -97.25185 | 10281 ft | 273 kts | 229° |
| 2026-05-06 20:02 | 32.97562 | -97.26853 | 10465 ft | 295 kts | 225° |
| 2026-05-06 20:02 | 32.95894 | -97.28425 | 10620 ft | 319 kts | 210° |
| 2026-05-06 20:02 | 32.93710 | -97.29275 | 10812 ft | 343 kts | 190° |
| 2026-05-06 20:02 | 32.91274 | -97.29289 | 11328 ft | 353 kts | 181° |
| 2026-05-06 20:03 | 32.88817 | -97.29113 | 12001 ft | 354 kts | 181° |
| 2026-05-06 20:03 | 32.86363 | -97.28931 | 12690 ft | 353 kts | 182° |
| 2026-05-06 20:03 | 32.83930 | -97.28778 | 13328 ft | 355 kts | 183° |
| 2026-05-06 20:03 | 32.81449 | -97.28641 | 13940 ft | 356 kts | 184° |
| 2026-05-06 20:04 | 32.78963 | -97.28321 | 14451 ft | 368 kts | 172° |
| 2026-05-06 20:04 | 32.76559 | -97.27118 | 14973 ft | 386 kts | 155° |
| 2026-05-06 20:04 | 32.74410 | -97.25193 | 15502 ft | 394 kts | 149° |
| 2026-05-06 20:04 | 32.72263 | -97.23112 | 15969 ft | 399 kts | 149° |
| 2026-05-06 20:05 | 32.70113 | -97.20992 | 16434 ft | 403 kts | 149° |
| 2026-05-06 20:05 | 32.67940 | -97.18854 | 16918 ft | 406 kts | 149° |
| 2026-05-06 20:05 | 32.65750 | -97.16711 | 17416 ft | 409 kts | 150° |
| 2026-05-06 20:05 | 32.63540 | -97.14566 | 17877 ft | 412 kts | 150° |
| 2026-05-06 20:06 | 32.61305 | -97.12409 | 18318 ft | 415 kts | 150° |
| 2026-05-06 20:06 | 32.59076 | -97.10265 | 18709 ft | 418 kts | 150° |
| 2026-05-06 20:06 | 32.56802 | -97.08082 | 19103 ft | 421 kts | 150° |
| 2026-05-06 20:06 | 32.54516 | -97.05890 | 19493 ft | 424 kts | 150° |
| 2026-05-06 20:07 | 32.52211 | -97.03682 | 19880 ft | 427 kts | 150° |
| 2026-05-06 20:07 | 32.49913 | -97.01481 | 20267 ft | 430 kts | 150° |
| 2026-05-06 20:07 | 32.47572 | -96.99240 | 20654 ft | 432 kts | 150° |
| 2026-05-06 20:07 | 32.45221 | -96.96992 | 21032 ft | 435 kts | 150° |
| 2026-05-06 20:08 | 32.42857 | -96.94732 | 21407 ft | 438 kts | 150° |
| 2026-05-06 20:08 | 32.40476 | -96.92457 | 21775 ft | 441 kts | 150° |
| 2026-05-06 20:08 | 32.38083 | -96.90172 | 22137 ft | 443 kts | 150° |
| 2026-05-06 20:08 | 32.35669 | -96.87868 | 22494 ft | 446 kts | 150° |
| 2026-05-06 20:09 | 32.33270 | -96.85580 | 22825 ft | 449 kts | 150° |
| 2026-05-06 20:09 | 32.30828 | -96.83254 | 23162 ft | 451 kts | 150° |
| 2026-05-06 20:09 | 32.28306 | -96.81057 | 23457 ft | 442 kts | 161° |
| 2026-05-06 20:09 | 32.25515 | -96.79748 | 23737 ft | 427 kts | 173° |
| 2026-05-06 20:10 | 32.22667 | -96.78721 | 24040 ft | 429 kts | 172° |
| 2026-05-06 20:10 | 32.19806 | -96.77659 | 24295 ft | 432 kts | 172° |
| 2026-05-06 20:10 | 32.16971 | -96.76583 | 24563 ft | 434 kts | 172° |
| 2026-05-06 20:10 | 32.14093 | -96.75473 | 24838 ft | 436 kts | 171° |
| 2026-05-06 20:11 | 32.11203 | -96.74349 | 25107 ft | 438 kts | 171° |
| 2026-05-06 20:11 | 32.08303 | -96.73218 | 25379 ft | 440 kts | 171° |
| 2026-05-06 20:11 | 32.05389 | -96.72082 | 25648 ft | 442 kts | 172° |
| 2026-05-06 20:11 | 32.02453 | -96.70940 | 25901 ft | 443 kts | 172° |
| 2026-05-06 20:12 | 31.99512 | -96.69797 | 26154 ft | 445 kts | 172° |
| 2026-05-06 20:12 | 31.96596 | -96.68664 | 26400 ft | 447 kts | 172° |
| 2026-05-06 20:12 | 31.93642 | -96.67518 | 26651 ft | 448 kts | 172° |
| 2026-05-06 20:12 | 31.90666 | -96.66365 | 26896 ft | 449 kts | 172° |
| 2026-05-06 20:13 | 31.87687 | -96.65212 | 27123 ft | 451 kts | 172° |
| 2026-05-06 20:13 | 31.84700 | -96.64058 | 27334 ft | 452 kts | 172° |
| 2026-05-06 20:13 | 31.81734 | -96.62913 | 27558 ft | 454 kts | 172° |
| 2026-05-06 20:13 | 31.78719 | -96.61750 | 27779 ft | 455 kts | 172° |
| 2026-05-06 20:14 | 31.75700 | -96.60585 | 27990 ft | 457 kts | 172° |
| 2026-05-06 20:14 | 31.72674 | -96.59417 | 28200 ft | 458 kts | 172° |
| 2026-05-06 20:14 | 31.69636 | -96.58246 | 28402 ft | 460 kts | 172° |
| 2026-05-06 20:14 | 31.66588 | -96.57071 | 28590 ft | 461 kts | 172° |
| 2026-05-06 20:15 | 31.63559 | -96.55904 | 28792 ft | 462 kts | 172° |
| 2026-05-06 20:15 | 31.60499 | -96.54725 | 29058 ft | 462 kts | 172° |
| 2026-05-06 20:15 | 31.57437 | -96.53545 | 29351 ft | 461 kts | 172° |
| 2026-05-06 20:15 | 31.54383 | -96.52371 | 29632 ft | 460 kts | 172° |
| 2026-05-06 20:16 | 31.51340 | -96.51204 | 29880 ft | 460 kts | 173° |
| 2026-05-06 20:16 | 31.48291 | -96.50052 | 30114 ft | 460 kts | 173° |
| 2026-05-06 20:16 | 31.45281 | -96.48924 | 30333 ft | 459 kts | 173° |
| 2026-05-06 20:16 | 31.42238 | -96.47787 | 30606 ft | 457 kts | 173° |
| 2026-05-06 20:17 | 31.39203 | -96.46653 | 30859 ft | 456 kts | 173° |
| 2026-05-06 20:17 | 31.36183 | -96.45525 | 31087 ft | 455 kts | 173° |
| 2026-05-06 20:17 | 31.33165 | -96.44398 | 31311 ft | 455 kts | 173° |
| 2026-05-06 20:17 | 31.30183 | -96.43283 | 31538 ft | 454 kts | 173° |
| 2026-05-06 20:18 | 31.27175 | -96.42159 | 31756 ft | 453 kts | 173° |
| 2026-05-06 20:18 | 31.24154 | -96.41031 | 31987 ft | 453 kts | 173° |
| 2026-05-06 20:18 | 31.21147 | -96.39908 | 32218 ft | 452 kts | 173° |
| 2026-05-06 20:18 | 31.18143 | -96.38787 | 32433 ft | 452 kts | 173° |
| 2026-05-06 20:19 | 31.15169 | -96.37679 | 32651 ft | 452 kts | 173° |
| 2026-05-06 20:19 | 31.12179 | -96.36566 | 32871 ft | 452 kts | 173° |
| 2026-05-06 20:19 | 31.09176 | -96.35447 | 33106 ft | 452 kts | 173° |
| 2026-05-06 20:19 | 31.06175 | -96.34330 | 33330 ft | 451 kts | 173° |
| 2026-05-06 20:20 | 31.03185 | -96.33217 | 33522 ft | 451 kts | 173° |
| 2026-05-06 20:20 | 31.00176 | -96.32099 | 33702 ft | 452 kts | 173° |
| 2026-05-06 20:20 | 30.97211 | -96.30997 | 33888 ft | 452 kts | 173° |
| 2026-05-06 20:20 | 30.94215 | -96.29884 | 34084 ft | 451 kts | 173° |
| 2026-05-06 20:21 | 30.91229 | -96.28775 | 34270 ft | 451 kts | 173° |
| 2026-05-06 20:21 | 30.88229 | -96.27662 | 34439 ft | 451 kts | 173° |
| 2026-05-06 20:21 | 30.85233 | -96.26551 | 34617 ft | 451 kts | 173° |
| 2026-05-06 20:21 | 30.82231 | -96.25439 | 34796 ft | 451 kts | 173° |
| 2026-05-06 20:22 | 30.79242 | -96.24333 | 34925 ft | 451 kts | 173° |
| 2026-05-06 20:22 | 30.76284 | -96.23240 | 34923 ft | 452 kts | 173° |
| 2026-05-06 20:22 | 30.70278 | -96.21020 | 34926 ft | 451 kts | 173° |
| 2026-05-06 20:23 | 30.64297 | -96.18810 | 34900 ft | 451 kts | 173° |
| 2026-05-06 20:23 | 30.58325 | -96.16608 | 34861 ft | 450 kts | 173° |
| 2026-05-06 20:24 | 30.52388 | -96.14423 | 34835 ft | 450 kts | 173° |
| 2026-05-06 20:24 | 30.46403 | -96.12222 | 34793 ft | 450 kts | 173° |
| 2026-05-06 20:25 | 30.40473 | -96.10044 | 34745 ft | 450 kts | 173° |
| 2026-05-06 20:25 | 30.34495 | -96.07851 | 34690 ft | 450 kts | 173° |
| 2026-05-06 20:26 | 30.29548 | -96.05847 | 34674 ft | 464 kts | 162° |
| 2026-05-06 20:26 | 30.26848 | -96.03628 | 34693 ft | 487 kts | 146° |
| 2026-05-06 20:26 | 30.24421 | -96.00834 | 34710 ft | 491 kts | 143° |
| 2026-05-06 20:27 | 30.19703 | -95.95107 | 34717 ft | 493 kts | 142° |
| 2026-05-06 20:27 | 30.14954 | -95.89354 | 34765 ft | 493 kts | 143° |
| 2026-05-06 20:28 | 30.10201 | -95.83706 | 34830 ft | 494 kts | 143° |
| 2026-05-06 20:28 | 30.05340 | -95.77993 | 34855 ft | 501 kts | 143° |
| 2026-05-06 20:29 | 30.00495 | -95.72294 | 34858 ft | 489 kts | 143° |
| 2026-05-06 20:29 | 29.95764 | -95.66738 | 34881 ft | 488 kts | 143° |
| 2026-05-06 20:30 | 29.88614 | -95.58369 | 34885 ft | 488 kts | 143° |
| 2026-05-06 20:31 | 29.83835 | -95.52784 | 34868 ft | 490 kts | 143° |
| 2026-05-06 20:31 | 29.79054 | -95.47203 | 34890 ft | 493 kts | 143° |
| 2026-05-06 20:32 | 29.74217 | -95.41563 | 34876 ft | 496 kts | 143° |
| 2026-05-06 20:32 | 29.69355 | -95.35902 | 34891 ft | 499 kts | 143° |
| 2026-05-06 20:33 | 29.64485 | -95.30239 | 34871 ft | 501 kts | 143° |
| 2026-05-06 20:33 | 29.59571 | -95.24531 | 34875 ft | 502 kts | 143° |
| 2026-05-06 20:34 | 29.54648 | -95.18823 | 34886 ft | 503 kts | 143° |
| 2026-05-06 20:34 | 29.49710 | -95.13105 | 34888 ft | 503 kts | 143° |
| 2026-05-06 20:35 | 29.44810 | -95.07440 | 34883 ft | 502 kts | 143° |
| 2026-05-06 20:35 | 29.39879 | -95.01746 | 34896 ft | 501 kts | 143° |
| 2026-05-06 20:36 | 29.34996 | -94.96118 | 34900 ft | 499 kts | 143° |
| 2026-05-06 20:36 | 29.30099 | -94.90479 | 34902 ft | 497 kts | 143° |
| 2026-05-06 20:37 | 29.25223 | -94.84907 | 34904 ft | 495 kts | 144° |
| 2026-05-06 20:37 | 29.20205 | -94.79504 | 34910 ft | 492 kts | 145° |
| 2026-05-06 20:38 | 29.15202 | -94.74221 | 34901 ft | 491 kts | 145° |
| 2026-05-06 20:38 | 29.10185 | -94.68897 | 34890 ft | 491 kts | 145° |
| 2026-05-06 20:39 | 29.05208 | -94.63589 | 34886 ft | 490 kts | 145° |
| 2026-05-06 20:39 | 29.00210 | -94.58254 | 34875 ft | 490 kts | 145° |
| 2026-05-06 20:40 | 28.95213 | -94.52928 | 34874 ft | 490 kts | 145° |
| 2026-05-06 20:40 | 28.90250 | -94.47647 | 34876 ft | 491 kts | 144° |
| 2026-05-06 20:41 | 28.85233 | -94.42318 | 34877 ft | 491 kts | 144° |
| 2026-05-06 20:41 | 28.80251 | -94.37032 | 34875 ft | 491 kts | 144° |
| 2026-05-06 20:42 | 28.75240 | -94.31723 | 34882 ft | 491 kts | 144° |
| 2026-05-06 20:42 | 28.70218 | -94.26409 | 34880 ft | 491 kts | 144° |
| 2026-05-06 20:43 | 28.65231 | -94.21140 | 34880 ft | 491 kts | 144° |
| 2026-05-06 20:43 | 28.60215 | -94.15847 | 34877 ft | 491 kts | 144° |
| 2026-05-06 20:44 | 28.55184 | -94.10546 | 34877 ft | 491 kts | 144° |
| 2026-05-06 20:44 | 28.50187 | -94.05288 | 34877 ft | 491 kts | 144° |
| 2026-05-06 20:45 | 28.45155 | -93.99999 | 34877 ft | 491 kts | 144° |
| 2026-05-06 20:45 | 28.40163 | -93.94761 | 34877 ft | 490 kts | 144° |
| 2026-05-06 20:46 | 28.35146 | -93.89502 | 34876 ft | 490 kts | 144° |
| 2026-05-06 20:46 | 28.30124 | -93.84247 | 34876 ft | 490 kts | 144° |
| 2026-05-06 20:47 | 28.25139 | -93.79036 | 34875 ft | 489 kts | 144° |
| 2026-05-06 20:47 | 28.20124 | -93.73801 | 34874 ft | 489 kts | 144° |
| 2026-05-06 20:48 | 28.15139 | -93.68604 | 34877 ft | 489 kts | 144° |
| 2026-05-06 20:48 | 28.10126 | -93.63386 | 34875 ft | 488 kts | 144° |
| 2026-05-06 20:49 | 28.05126 | -93.58187 | 34877 ft | 488 kts | 144° |
| 2026-05-06 20:49 | 28.00120 | -93.52989 | 34884 ft | 488 kts | 144° |
| 2026-05-06 20:50 | 27.95145 | -93.47831 | 34880 ft | 487 kts | 144° |
| 2026-05-06 20:50 | 27.90135 | -93.42641 | 34881 ft | 487 kts | 144° |
| 2026-05-06 20:51 | 27.85131 | -93.37466 | 34879 ft | 487 kts | 144° |
| 2026-05-06 20:51 | 27.80159 | -93.32329 | 34882 ft | 486 kts | 144° |
| 2026-05-06 20:52 | 27.75164 | -93.27175 | 34881 ft | 486 kts | 144° |
| 2026-05-06 20:52 | 27.70145 | -93.22078 | 34879 ft | 482 kts | 149° |
| 2026-05-06 20:53 | 27.64477 | -93.18328 | 34880 ft | 463 kts | 166° |
| 2026-05-06 20:53 | 27.58443 | -93.15950 | 34880 ft | 461 kts | 168° |
| 2026-05-06 20:54 | 27.52402 | -93.13536 | 34883 ft | 462 kts | 167° |
| 2026-05-06 20:54 | 27.46341 | -93.11052 | 34884 ft | 463 kts | 167° |
| 2026-05-06 20:55 | 27.40283 | -93.08589 | 34887 ft | 463 kts | 167° |
| 2026-05-06 20:55 | 27.34204 | -93.06124 | 34878 ft | 463 kts | 167° |
| 2026-05-06 20:56 | 27.28161 | -93.03675 | 34885 ft | 463 kts | 167° |
| 2026-05-06 20:56 | 27.22110 | -93.01224 | 34888 ft | 464 kts | 167° |
| 2026-05-06 20:57 | 27.16017 | -92.98758 | 34884 ft | 464 kts | 167° |
| 2026-05-06 20:57 | 27.09943 | -92.96303 | 34883 ft | 463 kts | 167° |
| 2026-05-06 20:58 | 27.03908 | -92.93866 | 34889 ft | 463 kts | 167° |
| 2026-05-06 20:58 | 26.97831 | -92.91415 | 34889 ft | 462 kts | 166° |
| 2026-05-06 20:59 | 26.91802 | -92.88987 | 34886 ft | 462 kts | 166° |
| 2026-05-06 20:59 | 26.85752 | -92.86552 | 34889 ft | 461 kts | 166° |
| 2026-05-06 21:00 | 26.79734 | -92.83999 | 34885 ft | 465 kts | 160° |
| 2026-05-06 21:00 | 26.74120 | -92.80370 | 34881 ft | 470 kts | 155° |
| 2026-05-06 21:01 | 26.68545 | -92.76545 | 34896 ft | 469 kts | 154° |
| 2026-05-06 21:01 | 26.62951 | -92.72745 | 34899 ft | 469 kts | 155° |
| 2026-05-06 21:02 | 26.57351 | -92.68991 | 34898 ft | 468 kts | 155° |
| 2026-05-06 21:02 | 26.51782 | -92.65280 | 34900 ft | 468 kts | 155° |
| 2026-05-06 21:03 | 26.46177 | -92.61551 | 34901 ft | 468 kts | 155° |
| 2026-05-06 21:03 | 26.40568 | -92.57822 | 34899 ft | 468 kts | 155° |
| 2026-05-06 21:04 | 26.35001 | -92.54124 | 34901 ft | 468 kts | 155° |
| 2026-05-06 21:04 | 26.29391 | -92.50401 | 34901 ft | 468 kts | 155° |
| 2026-05-06 21:05 | 26.23779 | -92.46681 | 34905 ft | 468 kts | 155° |
| 2026-05-06 21:05 | 26.18198 | -92.42986 | 34904 ft | 469 kts | 155° |
| 2026-05-06 21:06 | 26.12584 | -92.39273 | 34905 ft | 469 kts | 155° |
| 2026-05-06 21:06 | 26.06967 | -92.35563 | 34904 ft | 469 kts | 155° |
| 2026-05-06 21:07 | 26.01373 | -92.31871 | 34904 ft | 469 kts | 155° |
| 2026-05-06 21:07 | 25.95738 | -92.28157 | 34909 ft | 469 kts | 154° |
| 2026-05-06 21:08 | 25.90154 | -92.24481 | 34908 ft | 469 kts | 155° |
| 2026-05-06 21:08 | 25.84522 | -92.20777 | 34906 ft | 469 kts | 155° |
| 2026-05-06 21:09 | 25.78890 | -92.17077 | 34903 ft | 469 kts | 154° |
| 2026-05-06 21:09 | 25.73301 | -92.13410 | 34909 ft | 469 kts | 155° |
| 2026-05-06 21:10 | 25.67675 | -92.09722 | 34909 ft | 469 kts | 155° |
| 2026-05-06 21:10 | 25.62050 | -92.06039 | 34907 ft | 469 kts | 154° |
| 2026-05-06 21:11 | 25.56457 | -92.02381 | 34908 ft | 468 kts | 154° |
| 2026-05-06 21:11 | 25.50835 | -91.98709 | 34910 ft | 468 kts | 154° |
| 2026-05-06 21:12 | 25.46166 | -91.95662 | 34909 ft | 468 kts | 154° |
| 2026-05-06 21:12 | 25.40589 | -91.92025 | 34910 ft | 467 kts | 154° |
| 2026-05-06 21:13 | 25.34041 | -91.87762 | 34910 ft | 467 kts | 154° |
| 2026-05-06 21:13 | 25.29380 | -91.84730 | 34909 ft | 467 kts | 154° |
| 2026-05-06 21:14 | 25.23776 | -91.81088 | 34908 ft | 467 kts | 154° |
| 2026-05-06 21:14 | 25.18207 | -91.77473 | 34910 ft | 466 kts | 154° |
| 2026-05-06 21:15 | 25.12601 | -91.73838 | 34909 ft | 466 kts | 154° |
| 2026-05-06 21:15 | 25.06997 | -91.70208 | 34909 ft | 466 kts | 154° |
| 2026-05-06 21:16 | 25.01423 | -91.66601 | 34911 ft | 466 kts | 154° |
| 2026-05-06 21:16 | 24.95823 | -91.62981 | 34909 ft | 466 kts | 154° |
| 2026-05-06 21:17 | 24.90214 | -91.59359 | 34913 ft | 466 kts | 154° |
| 2026-05-06 21:17 | 24.84633 | -91.55759 | 34912 ft | 466 kts | 154° |
| 2026-05-06 21:18 | 24.79022 | -91.52144 | 34913 ft | 466 kts | 154° |
| 2026-05-06 21:18 | 24.73415 | -91.48535 | 34911 ft | 466 kts | 154° |
| 2026-05-06 21:19 | 24.67839 | -91.44949 | 34913 ft | 466 kts | 154° |
| 2026-05-06 21:19 | 24.62225 | -91.41343 | 34916 ft | 466 kts | 154° |
| 2026-05-06 21:20 | 24.56612 | -91.37740 | 34915 ft | 466 kts | 154° |
| 2026-05-06 21:20 | 24.51028 | -91.34161 | 34911 ft | 466 kts | 154° |
| 2026-05-06 21:21 | 24.45241 | -91.31044 | 34920 ft | 461 kts | 161° |
| 2026-05-06 21:21 | 24.39316 | -91.28287 | 34910 ft | 461 kts | 161° |
| 2026-05-06 21:22 | 24.33461 | -91.25500 | 34914 ft | 461 kts | 160° |
| 2026-05-06 21:22 | 24.27583 | -91.22653 | 34912 ft | 461 kts | 160° |
| 2026-05-06 21:23 | 24.21703 | -91.19813 | 34911 ft | 460 kts | 160° |
| 2026-05-06 21:23 | 24.15868 | -91.17001 | 34911 ft | 460 kts | 160° |
| 2026-05-06 21:24 | 24.10006 | -91.14177 | 34908 ft | 460 kts | 160° |
| 2026-05-06 21:24 | 24.04147 | -91.11357 | 34911 ft | 459 kts | 160° |
| 2026-05-06 21:25 | 23.98330 | -91.08559 | 34910 ft | 459 kts | 160° |
| 2026-05-06 21:25 | 23.92470 | -91.05744 | 34907 ft | 459 kts | 160° |
| 2026-05-06 21:26 | 23.86612 | -91.02933 | 34909 ft | 459 kts | 160° |
| 2026-05-06 21:26 | 23.80794 | -91.00143 | 34909 ft | 459 kts | 160° |
| 2026-05-06 21:27 | 23.74942 | -90.97340 | 34906 ft | 459 kts | 160° |
| 2026-05-06 21:27 | 23.69129 | -90.94558 | 34908 ft | 459 kts | 160° |
| 2026-05-06 21:28 | 23.63273 | -90.91759 | 34908 ft | 459 kts | 160° |
| 2026-05-06 21:28 | 23.57422 | -90.88964 | 34910 ft | 459 kts | 160° |
| 2026-05-06 21:29 | 23.51594 | -90.86183 | 34906 ft | 459 kts | 160° |
| 2026-05-06 21:29 | 23.45723 | -90.83385 | 34907 ft | 460 kts | 159° |
| 2026-05-06 21:30 | 23.39895 | -90.80608 | 34908 ft | 460 kts | 159° |
| 2026-05-06 21:30 | 23.34021 | -90.77813 | 34907 ft | 460 kts | 159° |
| 2026-05-06 21:31 | 23.28150 | -90.75022 | 34902 ft | 460 kts | 159° |
| 2026-05-06 21:31 | 23.22281 | -90.72229 | 34906 ft | 460 kts | 159° |
| 2026-05-06 21:32 | 23.16434 | -90.69446 | 34903 ft | 460 kts | 159° |
| 2026-05-06 21:32 | 23.07643 | -90.65267 | 34902 ft | 460 kts | 159° |
| 2026-05-06 21:33 | 23.01765 | -90.62477 | 34901 ft | 460 kts | 159° |
| 2026-05-06 21:33 | 22.95888 | -90.59689 | 34902 ft | 460 kts | 159° |
| 2026-05-06 21:34 | 22.90040 | -90.56918 | 34898 ft | 460 kts | 159° |
| 2026-05-06 21:34 | 22.84169 | -90.54139 | 34899 ft | 460 kts | 159° |
| 2026-05-06 21:35 | 22.78331 | -90.51378 | 34897 ft | 460 kts | 159° |
| 2026-05-06 21:35 | 22.72455 | -90.48601 | 34897 ft | 460 kts | 159° |
| 2026-05-06 21:36 | 22.66617 | -90.45845 | 34894 ft | 459 kts | 159° |
| 2026-05-06 21:36 | 22.60737 | -90.43071 | 34892 ft | 459 kts | 159° |
| 2026-05-06 21:37 | 22.54910 | -90.40325 | 34889 ft | 459 kts | 159° |
| 2026-05-06 21:37 | 22.49050 | -90.37568 | 34888 ft | 459 kts | 159° |
| 2026-05-06 21:38 | 22.43173 | -90.34810 | 34887 ft | 458 kts | 159° |
| 2026-05-06 21:38 | 22.37357 | -90.32081 | 34884 ft | 458 kts | 159° |
| 2026-05-06 21:39 | 22.31495 | -90.29336 | 34884 ft | 458 kts | 159° |
| 2026-05-06 21:39 | 22.25640 | -90.26602 | 34885 ft | 458 kts | 159° |
| 2026-05-06 21:40 | 22.19784 | -90.23870 | 34886 ft | 458 kts | 159° |
| 2026-05-06 21:40 | 22.13959 | -90.21153 | 34879 ft | 458 kts | 159° |
| 2026-05-06 21:41 | 22.08080 | -90.18413 | 34875 ft | 458 kts | 159° |
| 2026-05-06 21:41 | 22.02213 | -90.15681 | 34875 ft | 459 kts | 159° |
| 2026-05-06 21:42 | 21.96385 | -90.12970 | 34873 ft | 459 kts | 159° |
| 2026-05-06 21:42 | 21.90511 | -90.10239 | 34872 ft | 459 kts | 159° |
| 2026-05-06 21:43 | 21.84641 | -90.07513 | 34870 ft | 459 kts | 159° |
| 2026-05-06 21:43 | 21.78801 | -90.04803 | 34867 ft | 459 kts | 159° |
| 2026-05-06 21:44 | 21.72919 | -90.02076 | 34862 ft | 459 kts | 159° |
| 2026-05-06 21:44 | 21.67030 | -89.99352 | 34861 ft | 459 kts | 159° |
| 2026-05-06 21:45 | 21.61187 | -89.96658 | 34857 ft | 460 kts | 159° |
| 2026-05-06 21:45 | 21.55293 | -89.93942 | 34858 ft | 460 kts | 159° |
| 2026-05-06 21:46 | 21.49406 | -89.91230 | 34854 ft | 460 kts | 159° |
| 2026-05-06 21:46 | 21.43521 | -89.88521 | 34850 ft | 460 kts | 159° |
| 2026-05-06 21:47 | 21.37668 | -89.85830 | 34851 ft | 460 kts | 159° |
| 2026-05-06 21:47 | 21.31769 | -89.83119 | 34848 ft | 460 kts | 159° |
| 2026-05-06 21:48 | 21.25910 | -89.80424 | 34847 ft | 460 kts | 158° |
| 2026-05-06 21:48 | 21.20026 | -89.77704 | 34847 ft | 460 kts | 158° |
| 2026-05-06 21:49 | 21.14149 | -89.74986 | 34854 ft | 460 kts | 158° |
| 2026-05-06 21:49 | 21.08303 | -89.72287 | 34856 ft | 459 kts | 159° |
| 2026-05-06 21:50 | 21.02432 | -89.69579 | 34863 ft | 459 kts | 158° |
| 2026-05-06 21:50 | 20.96550 | -89.66868 | 34861 ft | 459 kts | 159° |
| 2026-05-06 21:51 | 20.90675 | -89.64242 | 34863 ft | 459 kts | 161° |
| 2026-05-06 21:51 | 20.84674 | -89.61859 | 34860 ft | 458 kts | 161° |
| 2026-05-06 21:52 | 20.78681 | -89.59508 | 34862 ft | 458 kts | 161° |
| 2026-05-06 21:52 | 20.72731 | -89.57136 | 34854 ft | 458 kts | 161° |
| 2026-05-06 21:53 | 20.66760 | -89.54742 | 34848 ft | 458 kts | 161° |
| 2026-05-06 21:53 | 20.60791 | -89.52345 | 34851 ft | 458 kts | 161° |
| 2026-05-06 21:54 | 20.54861 | -89.49969 | 34858 ft | 458 kts | 161° |
| 2026-05-06 21:54 | 20.48875 | -89.47571 | 34857 ft | 458 kts | 161° |
| 2026-05-06 21:55 | 20.42948 | -89.45182 | 34862 ft | 458 kts | 161° |
| 2026-05-06 21:55 | 20.36977 | -89.42752 | 34858 ft | 458 kts | 161° |
| 2026-05-06 21:56 | 20.31004 | -89.40353 | 34861 ft | 458 kts | 161° |
| 2026-05-06 21:56 | 20.25062 | -89.37983 | 34854 ft | 458 kts | 161° |
| 2026-05-06 21:57 | 20.19079 | -89.35592 | 34869 ft | 458 kts | 161° |
| 2026-05-06 21:57 | 20.13131 | -89.33217 | 34869 ft | 458 kts | 161° |
| 2026-05-06 21:58 | 20.07152 | -89.30830 | 34870 ft | 458 kts | 161° |
| 2026-05-06 21:58 | 20.01179 | -89.28448 | 34872 ft | 457 kts | 161° |
| 2026-05-06 21:59 | 19.95238 | -89.26084 | 34864 ft | 457 kts | 161° |
| 2026-05-06 21:59 | 19.89276 | -89.23724 | 34867 ft | 456 kts | 161° |
| 2026-05-06 22:00 | 19.84324 | -89.21767 | 34871 ft | 456 kts | 161° |
| 2026-05-06 22:00 | 19.78361 | -89.19408 | 34863 ft | 456 kts | 161° |
| 2026-05-06 22:01 | 19.72434 | -89.17065 | 34875 ft | 456 kts | 161° |
| 2026-05-06 22:01 | 19.66503 | -89.14718 | 34873 ft | 456 kts | 161° |
| 2026-05-06 22:02 | 19.60540 | -89.12352 | 34867 ft | 456 kts | 160° |
| 2026-05-06 22:02 | 19.54623 | -89.10004 | 34877 ft | 456 kts | 161° |
| 2026-05-06 22:03 | 19.48666 | -89.07642 | 34874 ft | 456 kts | 160° |
| 2026-05-06 22:03 | 19.42711 | -89.05284 | 34882 ft | 455 kts | 160° |
| 2026-05-06 22:04 | 19.36801 | -89.02947 | 34886 ft | 455 kts | 160° |
| 2026-05-06 22:04 | 19.30856 | -89.00599 | 34888 ft | 455 kts | 160° |
| 2026-05-06 22:05 | 19.24961 | -88.98275 | 34881 ft | 455 kts | 160° |
| 2026-05-06 22:05 | 19.19020 | -88.95933 | 34892 ft | 455 kts | 160° |
| 2026-05-06 22:06 | 19.13081 | -88.93593 | 34891 ft | 455 kts | 160° |
| 2026-05-06 22:06 | 19.07173 | -88.91266 | 34889 ft | 455 kts | 160° |
| 2026-05-06 22:07 | 19.01230 | -88.88928 | 34897 ft | 455 kts | 160° |
| 2026-05-06 22:07 | 18.95284 | -88.86591 | 34906 ft | 455 kts | 160° |
| 2026-05-06 22:08 | 18.89363 | -88.84265 | 34906 ft | 456 kts | 160° |
| 2026-05-06 22:08 | 18.83394 | -88.81922 | 34906 ft | 456 kts | 160° |
| 2026-05-06 22:09 | 18.77463 | -88.79596 | 34910 ft | 457 kts | 160° |
| 2026-05-06 22:09 | 18.71495 | -88.77257 | 34901 ft | 457 kts | 160° |
| 2026-05-06 22:10 | 18.65513 | -88.74914 | 34910 ft | 458 kts | 160° |
| 2026-05-06 22:10 | 18.59570 | -88.72588 | 34913 ft | 458 kts | 160° |
| 2026-05-06 22:11 | 18.53579 | -88.70245 | 34916 ft | 458 kts | 160° |
| 2026-05-06 22:11 | 18.47626 | -88.67918 | 34915 ft | 459 kts | 160° |
| 2026-05-06 22:12 | 18.41626 | -88.65575 | 34925 ft | 459 kts | 160° |
| 2026-05-06 22:12 | 18.35636 | -88.63231 | 34922 ft | 459 kts | 160° |
| 2026-05-06 22:13 | 18.29680 | -88.60892 | 34921 ft | 459 kts | 160° |
| 2026-05-06 22:13 | 18.23676 | -88.58536 | 34921 ft | 459 kts | 160° |
| 2026-05-06 22:14 | 18.17679 | -88.56185 | 34923 ft | 459 kts | 160° |
| 2026-05-06 22:14 | 18.11711 | -88.53865 | 34922 ft | 459 kts | 160° |
| 2026-05-06 22:15 | 18.05703 | -88.51547 | 34926 ft | 459 kts | 160° |
| 2026-05-06 22:15 | 17.99728 | -88.49239 | 34919 ft | 459 kts | 160° |
| 2026-05-06 22:16 | 17.93716 | -88.46917 | 34917 ft | 459 kts | 160° |
| 2026-05-06 22:16 | 17.87708 | -88.44579 | 34922 ft | 459 kts | 159° |
| 2026-05-06 22:17 | 17.81748 | -88.42242 | 34925 ft | 459 kts | 159° |
| 2026-05-06 22:17 | 17.75743 | -88.39891 | 34924 ft | 459 kts | 159° |
| 2026-05-06 22:18 | 17.69773 | -88.37558 | 34924 ft | 459 kts | 159° |
| 2026-05-06 22:18 | 17.63776 | -88.35216 | 34926 ft | 459 kts | 159° |
| 2026-05-06 22:19 | 17.57783 | -88.32876 | 34929 ft | 459 kts | 159° |
| 2026-05-06 22:19 | 17.51800 | -88.30552 | 34926 ft | 460 kts | 159° |
| 2026-05-06 22:20 | 17.45775 | -88.28266 | 34926 ft | 460 kts | 160° |
| 2026-05-06 22:20 | 17.39781 | -88.26002 | 34920 ft | 460 kts | 159° |
| 2026-05-06 22:21 | 17.33752 | -88.23719 | 34921 ft | 460 kts | 159° |
| 2026-05-06 22:21 | 17.27724 | -88.21433 | 34920 ft | 460 kts | 159° |
| 2026-05-06 22:22 | 17.21735 | -88.19164 | 34915 ft | 460 kts | 159° |
| 2026-05-06 22:22 | 17.15704 | -88.16881 | 34916 ft | 460 kts | 159° |
| 2026-05-06 22:23 | 17.09650 | -88.14594 | 34916 ft | 461 kts | 159° |
| 2026-05-06 22:23 | 17.03642 | -88.12329 | 34917 ft | 461 kts | 159° |
| 2026-05-06 22:24 | 16.97598 | -88.10050 | 34915 ft | 462 kts | 159° |
| 2026-05-06 22:24 | 16.91543 | -88.07768 | 34913 ft | 462 kts | 159° |
| 2026-05-06 22:25 | 16.85500 | -88.05536 | 34908 ft | 463 kts | 160° |
| 2026-05-06 22:25 | 16.79407 | -88.03324 | 34902 ft | 463 kts | 160° |
| 2026-05-06 22:26 | 16.73312 | -88.01110 | 34908 ft | 463 kts | 160° |
| 2026-05-06 22:26 | 16.67249 | -87.98903 | 34900 ft | 464 kts | 160° |
| 2026-05-06 22:27 | 16.61149 | -87.96681 | 34902 ft | 464 kts | 160° |
| 2026-05-06 22:27 | 16.55040 | -87.94457 | 34897 ft | 464 kts | 160° |
| 2026-05-06 22:28 | 16.48931 | -87.92234 | 34899 ft | 464 kts | 160° |
| 2026-05-06 22:28 | 16.42855 | -87.90025 | 34898 ft | 465 kts | 160° |
| 2026-05-06 22:29 | 16.36737 | -87.87802 | 34901 ft | 465 kts | 160° |
| 2026-05-06 22:29 | 16.30618 | -87.85581 | 34893 ft | 465 kts | 160° |
| 2026-05-06 22:30 | 16.24531 | -87.83372 | 34895 ft | 465 kts | 160° |
| 2026-05-06 22:30 | 16.18414 | -87.81153 | 34892 ft | 465 kts | 160° |
| 2026-05-06 22:31 | 16.12286 | -87.78933 | 34893 ft | 466 kts | 160° |
| 2026-05-06 22:31 | 16.06223 | -87.76641 | 34892 ft | 466 kts | 158° |
| 2026-05-06 22:32 | 16.00143 | -87.74269 | 34891 ft | 466 kts | 158° |
| 2026-05-06 22:32 | 15.94092 | -87.71913 | 34888 ft | 467 kts | 158° |
| 2026-05-06 22:33 | 15.87977 | -87.69547 | 34893 ft | 467 kts | 159° |
| 2026-05-06 22:33 | 15.81912 | -87.67209 | 34888 ft | 468 kts | 159° |
| 2026-05-06 22:34 | 15.75794 | -87.64852 | 34890 ft | 468 kts | 159° |
| 2026-05-06 22:34 | 15.69691 | -87.62502 | 34886 ft | 469 kts | 159° |
| 2026-05-06 22:35 | 15.63562 | -87.60143 | 34888 ft | 470 kts | 159° |
| 2026-05-06 22:35 | 15.57421 | -87.57781 | 34893 ft | 470 kts | 159° |
| 2026-05-06 22:36 | 15.51311 | -87.55433 | 34892 ft | 471 kts | 159° |
| 2026-05-06 22:36 | 15.45144 | -87.53064 | 34899 ft | 472 kts | 159° |
| 2026-05-06 22:37 | 15.38970 | -87.50693 | 34911 ft | 472 kts | 159° |
| 2026-05-06 22:37 | 15.32828 | -87.48337 | 34907 ft | 473 kts | 159° |
| 2026-05-06 22:38 | 15.26645 | -87.45966 | 34912 ft | 473 kts | 159° |
| 2026-05-06 22:38 | 15.20443 | -87.43589 | 34913 ft | 474 kts | 159° |
| 2026-05-06 22:39 | 15.14271 | -87.41225 | 34911 ft | 474 kts | 159° |
| 2026-05-06 22:39 | 15.08068 | -87.38852 | 34911 ft | 475 kts | 159° |
| 2026-05-06 22:40 | 15.01886 | -87.36487 | 34910 ft | 475 kts | 159° |
| 2026-05-06 22:40 | 14.95713 | -87.34128 | 34919 ft | 474 kts | 159° |
| 2026-05-06 22:41 | 14.86401 | -87.30571 | 34909 ft | 474 kts | 159° |
| 2026-05-06 22:42 | 14.80244 | -87.28221 | 34923 ft | 474 kts | 159° |
| 2026-05-06 22:42 | 14.74049 | -87.25859 | 34928 ft | 474 kts | 159° |
| 2026-05-06 22:43 | 14.67850 | -87.23495 | 34939 ft | 474 kts | 159° |
| 2026-05-06 22:43 | 14.61684 | -87.21146 | 34952 ft | 474 kts | 159° |
| 2026-05-06 22:44 | 14.55470 | -87.18780 | 34964 ft | 474 kts | 159° |
| 2026-05-06 22:44 | 14.49273 | -87.16421 | 34978 ft | 474 kts | 159° |
| 2026-05-06 22:45 | 14.43099 | -87.14071 | 34991 ft | 475 kts | 158° |
| 2026-05-06 22:45 | 14.36996 | -87.11542 | 35014 ft | 475 kts | 156° |
| 2026-05-06 22:46 | 14.30890 | -87.08890 | 35024 ft | 476 kts | 156° |
| 2026-05-06 22:46 | 14.24761 | -87.06246 | 35045 ft | 476 kts | 156° |
| 2026-05-06 22:47 | 14.18665 | -87.03644 | 35042 ft | 477 kts | 156° |
| 2026-05-06 22:47 | 14.13546 | -87.01469 | 35045 ft | 477 kts | 156° |
| 2026-05-06 22:48 | 14.06392 | -86.98432 | 35040 ft | 478 kts | 156° |
| 2026-05-06 22:48 | 14.01274 | -86.96259 | 35029 ft | 478 kts | 156° |
| 2026-05-06 22:49 | 13.95107 | -86.93642 | 35010 ft | 478 kts | 157° |
| 2026-05-06 22:49 | 13.88969 | -86.91039 | 34975 ft | 479 kts | 156° |
| 2026-05-06 22:50 | 13.82802 | -86.88425 | 34952 ft | 478 kts | 157° |
| 2026-05-06 22:50 | 13.76673 | -86.85829 | 34937 ft | 478 kts | 157° |
| 2026-05-06 22:51 | 13.70523 | -86.83225 | 34922 ft | 477 kts | 157° |
| 2026-05-06 22:51 | 13.64373 | -86.80622 | 34924 ft | 477 kts | 157° |
| 2026-05-06 22:52 | 13.58233 | -86.78025 | 34916 ft | 476 kts | 157° |
| 2026-05-06 22:52 | 13.52138 | -86.75449 | 34907 ft | 476 kts | 157° |
| 2026-05-06 22:53 | 13.46013 | -86.72862 | 34906 ft | 475 kts | 157° |
| 2026-05-06 22:53 | 13.39917 | -86.70288 | 34897 ft | 475 kts | 157° |
| 2026-05-06 22:54 | 13.33793 | -86.67704 | 34899 ft | 475 kts | 157° |
| 2026-05-06 22:54 | 13.27669 | -86.65121 | 34894 ft | 475 kts | 157° |
| 2026-05-06 22:55 | 13.21535 | -86.62535 | 34889 ft | 475 kts | 157° |
| 2026-05-06 22:55 | 13.15442 | -86.59967 | 34883 ft | 475 kts | 157° |
| 2026-05-06 22:56 | 13.09314 | -86.57386 | 34873 ft | 475 kts | 157° |
| 2026-05-06 22:56 | 13.03205 | -86.54815 | 34873 ft | 475 kts | 157° |
| 2026-05-06 22:57 | 12.97103 | -86.52248 | 34878 ft | 475 kts | 157° |
| 2026-05-06 22:57 | 12.90983 | -86.49675 | 34874 ft | 475 kts | 157° |
| 2026-05-06 22:58 | 12.84846 | -86.47095 | 34869 ft | 476 kts | 157° |
| 2026-05-06 22:58 | 12.78753 | -86.44534 | 34862 ft | 476 kts | 157° |
| 2026-05-06 22:59 | 12.72613 | -86.41955 | 34854 ft | 476 kts | 157° |
| 2026-05-06 22:59 | 12.66482 | -86.39381 | 34857 ft | 475 kts | 157° |
| 2026-05-06 23:00 | 12.60396 | -86.36828 | 34846 ft | 476 kts | 157° |
| 2026-05-06 23:00 | 12.54260 | -86.34254 | 34841 ft | 476 kts | 157° |
| 2026-05-06 23:01 | 12.48152 | -86.31694 | 34841 ft | 476 kts | 157° |
| 2026-05-06 23:01 | 12.41977 | -86.29107 | 34844 ft | 479 kts | 157° |
| 2026-05-06 23:02 | 12.35813 | -86.26526 | 34845 ft | 480 kts | 157° |
| 2026-05-06 23:02 | 12.29667 | -86.23954 | 34835 ft | 478 kts | 158° |
| 2026-05-06 23:03 | 12.23536 | -86.21388 | 34832 ft | 473 kts | 158° |
| 2026-05-06 23:03 | 12.17474 | -86.18853 | 34835 ft | 467 kts | 158° |
| 2026-05-06 23:04 | 12.11477 | -86.16358 | 34837 ft | 462 kts | 159° |
| 2026-05-06 23:04 | 12.05551 | -86.13951 | 34842 ft | 461 kts | 159° |
| 2026-05-06 23:05 | 11.99521 | -86.11512 | 34848 ft | 468 kts | 159° |
| 2026-05-06 23:05 | 11.93467 | -86.09058 | 34847 ft | 472 kts | 159° |
| 2026-05-06 23:06 | 11.87336 | -86.06568 | 34845 ft | 474 kts | 159° |
| 2026-05-06 23:06 | 11.81217 | -86.04084 | 34857 ft | 475 kts | 159° |
| 2026-05-06 23:07 | 11.75077 | -86.01592 | 34854 ft | 474 kts | 159° |
| 2026-05-06 23:07 | 11.68936 | -85.99102 | 34856 ft | 473 kts | 159° |
| 2026-05-06 23:08 | 11.62826 | -85.96625 | 34867 ft | 471 kts | 159° |
| 2026-05-06 23:08 | 11.56737 | -85.94158 | 34866 ft | 470 kts | 159° |
| 2026-05-06 23:09 | 11.50693 | -85.91711 | 34868 ft | 469 kts | 158° |
| 2026-05-06 23:09 | 11.44614 | -85.89250 | 34872 ft | 468 kts | 158° |
| 2026-05-06 23:10 | 11.38600 | -85.86817 | 34871 ft | 467 kts | 158° |
| 2026-05-06 23:10 | 11.32548 | -85.84369 | 34874 ft | 467 kts | 158° |
| 2026-05-06 23:11 | 11.26487 | -85.81918 | 34879 ft | 467 kts | 158° |
| 2026-05-06 23:11 | 11.20457 | -85.79482 | 34883 ft | 468 kts | 158° |
| 2026-05-06 23:12 | 11.14407 | -85.77061 | 34887 ft | 469 kts | 159° |
| 2026-05-06 23:12 | 11.08323 | -85.74630 | 34892 ft | 469 kts | 159° |
| 2026-05-06 23:13 | 11.02243 | -85.72179 | 34894 ft | 470 kts | 158° |
| 2026-05-06 23:13 | 10.96201 | -85.69693 | 34897 ft | 470 kts | 158° |
| 2026-05-06 23:14 | 10.90109 | -85.67184 | 34900 ft | 471 kts | 158° |
| 2026-05-06 23:14 | 10.84063 | -85.64703 | 34893 ft | 471 kts | 158° |
| 2026-05-06 23:15 | 10.77976 | -85.62209 | 34884 ft | 471 kts | 158° |
| 2026-05-06 23:15 | 10.71885 | -85.59713 | 34875 ft | 471 kts | 158° |
| 2026-05-06 23:16 | 10.65820 | -85.57229 | 34871 ft | 471 kts | 158° |
| 2026-05-06 23:16 | 10.59941 | -85.54303 | 34868 ft | 470 kts | 145° |
| 2026-05-06 23:17 | 10.55131 | -85.49892 | 34882 ft | 468 kts | 131° |
| 2026-05-06 23:17 | 10.50864 | -85.44862 | 34872 ft | 469 kts | 130° |
| 2026-05-06 23:18 | 10.46589 | -85.39841 | 34880 ft | 469 kts | 130° |
| 2026-05-06 23:18 | 10.42295 | -85.34879 | 34895 ft | 469 kts | 131° |
| 2026-05-06 23:19 | 10.37982 | -85.29918 | 34907 ft | 468 kts | 131° |
| 2026-05-06 23:19 | 10.33685 | -85.24972 | 34912 ft | 468 kts | 131° |
| 2026-05-06 23:20 | 10.29392 | -85.20036 | 34914 ft | 468 kts | 131° |
| 2026-05-06 23:20 | 10.25075 | -85.15080 | 34920 ft | 468 kts | 131° |
| 2026-05-06 23:21 | 10.20757 | -85.10124 | 34919 ft | 468 kts | 131° |
| 2026-05-06 23:21 | 10.16466 | -85.05200 | 34922 ft | 467 kts | 131° |
| 2026-05-06 23:22 | 10.12143 | -85.00241 | 34926 ft | 467 kts | 131° |
| 2026-05-06 23:22 | 10.07860 | -84.95330 | 34921 ft | 467 kts | 131° |
| 2026-05-06 23:23 | 10.03558 | -84.90398 | 34924 ft | 466 kts | 131° |
| 2026-05-06 23:23 | 9.99250 | -84.85463 | 34925 ft | 466 kts | 131° |
| 2026-05-06 23:24 | 9.94974 | -84.80565 | 34925 ft | 466 kts | 131° |
| 2026-05-06 23:24 | 9.90669 | -84.75638 | 34927 ft | 465 kts | 131° |
| 2026-05-06 23:25 | 9.86364 | -84.70710 | 34931 ft | 465 kts | 131° |
| 2026-05-06 23:25 | 9.82079 | -84.65810 | 34930 ft | 465 kts | 131° |
| 2026-05-06 23:26 | 9.77777 | -84.60891 | 34929 ft | 465 kts | 131° |
| 2026-05-06 23:26 | 9.73498 | -84.56001 | 34930 ft | 466 kts | 131° |
| 2026-05-06 23:27 | 9.69180 | -84.51068 | 34933 ft | 466 kts | 131° |
| 2026-05-06 23:27 | 9.64902 | -84.46182 | 34935 ft | 466 kts | 131° |
| 2026-05-06 23:28 | 9.60595 | -84.41266 | 34939 ft | 466 kts | 131° |
| 2026-05-06 23:28 | 9.56311 | -84.36377 | 34939 ft | 465 kts | 131° |
| 2026-05-06 23:29 | 9.51528 | -84.31987 | 34942 ft | 465 kts | 147° |
| 2026-05-06 23:29 | 9.45691 | -84.29148 | 34949 ft | 465 kts | 159° |
| 2026-05-06 23:30 | 9.39624 | -84.26929 | 34934 ft | 465 kts | 160° |
| 2026-05-06 23:30 | 9.33525 | -84.24693 | 34927 ft | 465 kts | 159° |
| 2026-05-06 23:31 | 9.27476 | -84.22428 | 34915 ft | 465 kts | 159° |
| 2026-05-06 23:31 | 9.21399 | -84.20134 | 34915 ft | 465 kts | 159° |
| 2026-05-06 23:32 | 9.15323 | -84.17837 | 34915 ft | 465 kts | 159° |
| 2026-05-06 23:32 | 9.09293 | -84.15561 | 34913 ft | 465 kts | 159° |
| 2026-05-06 23:33 | 9.03219 | -84.13270 | 34912 ft | 465 kts | 159° |
| 2026-05-06 23:33 | 8.97183 | -84.10994 | 34916 ft | 464 kts | 159° |
| 2026-05-06 23:34 | 8.91115 | -84.08707 | 34914 ft | 464 kts | 159° |
| 2026-05-06 23:34 | 8.85079 | -84.06433 | 34913 ft | 464 kts | 159° |
| 2026-05-06 23:35 | 8.79028 | -84.04154 | 34913 ft | 464 kts | 159° |
| 2026-05-06 23:35 | 8.72968 | -84.01871 | 34911 ft | 464 kts | 159° |
| 2026-05-06 23:36 | 8.66920 | -83.99592 | 34914 ft | 464 kts | 158° |
| 2026-05-06 23:36 | 8.60924 | -83.97261 | 34913 ft | 464 kts | 158° |
| 2026-05-06 23:37 | 8.54906 | -83.94889 | 34917 ft | 464 kts | 158° |
| 2026-05-06 23:37 | 8.48891 | -83.92525 | 34915 ft | 464 kts | 158° |
| 2026-05-06 23:38 | 8.43874 | -83.90558 | 34916 ft | 464 kts | 158° |
| 2026-05-06 23:38 | 8.37848 | -83.88201 | 34912 ft | 464 kts | 158° |
| 2026-05-06 23:39 | 8.31843 | -83.85853 | 34914 ft | 465 kts | 158° |
| 2026-05-06 23:39 | 8.25802 | -83.83492 | 34911 ft | 465 kts | 158° |
| 2026-05-06 23:40 | 8.19768 | -83.81134 | 34914 ft | 465 kts | 158° |
| 2026-05-06 23:40 | 8.13720 | -83.78771 | 34909 ft | 465 kts | 158° |
| 2026-05-06 23:41 | 8.07711 | -83.76424 | 34906 ft | 465 kts | 158° |
| 2026-05-06 23:41 | 8.01671 | -83.74066 | 34906 ft | 465 kts | 158° |
| 2026-05-06 23:42 | 7.95616 | -83.71703 | 34909 ft | 465 kts | 158° |
| 2026-05-06 23:42 | 7.89616 | -83.69362 | 34907 ft | 465 kts | 158° |
| 2026-05-06 23:43 | 7.83564 | -83.67001 | 34907 ft | 465 kts | 158° |
| 2026-05-06 23:43 | 7.77516 | -83.64643 | 34905 ft | 465 kts | 158° |
| 2026-05-06 23:44 | 7.71514 | -83.62303 | 34907 ft | 465 kts | 158° |
| 2026-05-06 23:44 | 7.65456 | -83.59943 | 34902 ft | 465 kts | 158° |
| 2026-05-06 23:45 | 7.59441 | -83.57600 | 34908 ft | 465 kts | 158° |
| 2026-05-06 23:45 | 7.53407 | -83.55250 | 34904 ft | 465 kts | 158° |
| 2026-05-06 23:46 | 7.47355 | -83.52893 | 34909 ft | 465 kts | 158° |
| 2026-05-06 23:46 | 7.41353 | -83.50557 | 34906 ft | 465 kts | 158° |
| 2026-05-06 23:47 | 7.35314 | -83.48207 | 34906 ft | 465 kts | 158° |
| 2026-05-06 23:47 | 7.29259 | -83.45852 | 34909 ft | 465 kts | 158° |
| 2026-05-06 23:48 | 7.23261 | -83.43519 | 34909 ft | 465 kts | 158° |
| 2026-05-06 23:48 | 7.17206 | -83.41166 | 34908 ft | 464 kts | 158° |
| 2026-05-06 23:49 | 7.11216 | -83.38838 | 34908 ft | 463 kts | 158° |
| 2026-05-06 23:49 | 7.05189 | -83.36496 | 34904 ft | 463 kts | 158° |
| 2026-05-06 23:50 | 6.99169 | -83.34157 | 34905 ft | 462 kts | 158° |
| 2026-05-06 23:50 | 6.90223 | -83.30683 | 34907 ft | 460 kts | 158° |
| 2026-05-06 23:51 | 6.84240 | -83.28361 | 34906 ft | 460 kts | 158° |
| 2026-05-06 23:51 | 6.78306 | -83.26058 | 34908 ft | 459 kts | 158° |
| 2026-05-06 23:52 | 6.72345 | -83.23746 | 34905 ft | 458 kts | 158° |
| 2026-05-06 23:52 | 6.66379 | -83.21431 | 34904 ft | 458 kts | 158° |
| 2026-05-06 23:53 | 6.60461 | -83.19137 | 34907 ft | 457 kts | 158° |
| 2026-05-06 23:53 | 6.54507 | -83.16829 | 34905 ft | 457 kts | 158° |
| 2026-05-06 23:54 | 6.48587 | -83.14534 | 34907 ft | 458 kts | 158° |
| 2026-05-06 23:54 | 6.42630 | -83.12226 | 34909 ft | 458 kts | 158° |
| 2026-05-06 23:55 | 6.36711 | -83.09933 | 34909 ft | 459 kts | 158° |
| 2026-05-06 23:55 | 6.30736 | -83.07619 | 34910 ft | 459 kts | 158° |
| 2026-05-06 23:56 | 6.24752 | -83.05302 | 34909 ft | 460 kts | 158° |
| 2026-05-06 23:56 | 6.18803 | -83.02999 | 34906 ft | 460 kts | 158° |
| 2026-05-06 23:57 | 6.12820 | -83.00683 | 34909 ft | 461 kts | 158° |
| 2026-05-06 23:57 | 6.06853 | -82.98375 | 34910 ft | 461 kts | 158° |
| 2026-05-06 23:58 | 6.00866 | -82.96058 | 34910 ft | 461 kts | 158° |
| 2026-05-06 23:58 | 5.94872 | -82.93740 | 34909 ft | 461 kts | 158° |
| 2026-05-06 23:59 | 5.88875 | -82.91422 | 34909 ft | 461 kts | 158° |
| 2026-05-06 23:59 | 5.82915 | -82.89142 | 34914 ft | 461 kts | 158° |
| 2026-05-07 00:00 | 5.76923 | -82.86862 | 34913 ft | 460 kts | 158° |
| 2026-05-07 00:00 | 5.70926 | -82.84577 | 34910 ft | 460 kts | 158° |
| 2026-05-07 00:01 | 5.64970 | -82.82306 | 34912 ft | 459 kts | 158° |
| 2026-05-07 00:01 | 5.58977 | -82.80020 | 34916 ft | 459 kts | 157° |
| 2026-05-07 00:02 | 5.53001 | -82.77741 | 34912 ft | 459 kts | 157° |
| 2026-05-07 00:02 | 5.47064 | -82.75478 | 34914 ft | 459 kts | 157° |
| 2026-05-07 00:03 | 5.41077 | -82.73196 | 34915 ft | 459 kts | 157° |
| 2026-05-07 00:03 | 5.35094 | -82.70916 | 34911 ft | 459 kts | 157° |
| 2026-05-07 00:04 | 5.29154 | -82.68653 | 34914 ft | 459 kts | 157° |
| 2026-05-07 00:04 | 5.23169 | -82.66373 | 34915 ft | 459 kts | 157° |
| 2026-05-07 00:05 | 5.17224 | -82.64109 | 34911 ft | 459 kts | 157° |
| 2026-05-07 00:05 | 5.11253 | -82.61836 | 34917 ft | 459 kts | 157° |
| 2026-05-07 00:06 | 5.05265 | -82.59556 | 34917 ft | 459 kts | 157° |
| 2026-05-07 00:06 | 4.99314 | -82.57291 | 34911 ft | 459 kts | 157° |
| 2026-05-07 00:07 | 4.93329 | -82.55014 | 34912 ft | 459 kts | 157° |
| 2026-05-07 00:07 | 4.87337 | -82.52734 | 34913 ft | 459 kts | 157° |
| 2026-05-07 00:08 | 4.81394 | -82.50473 | 34916 ft | 460 kts | 157° |
| 2026-05-07 00:08 | 4.75404 | -82.48195 | 34915 ft | 460 kts | 157° |
| 2026-05-07 00:09 | 4.69399 | -82.45912 | 34916 ft | 460 kts | 157° |
| 2026-05-07 00:09 | 4.63431 | -82.43643 | 34915 ft | 461 kts | 157° |
| 2026-05-07 00:10 | 4.57423 | -82.41358 | 34916 ft | 461 kts | 157° |
| 2026-05-07 00:10 | 4.51438 | -82.39083 | 34916 ft | 462 kts | 157° |
| 2026-05-07 00:11 | 4.45416 | -82.36789 | 34916 ft | 463 kts | 157° |
| 2026-05-07 00:11 | 4.39381 | -82.34487 | 34917 ft | 463 kts | 157° |
| 2026-05-07 00:12 | 4.33358 | -82.32190 | 34913 ft | 463 kts | 157° |
| 2026-05-07 00:12 | 4.27365 | -82.29906 | 34915 ft | 463 kts | 157° |
| 2026-05-07 00:13 | 4.21311 | -82.27599 | 34909 ft | 463 kts | 157° |
| 2026-05-07 00:13 | 4.15315 | -82.25314 | 34916 ft | 463 kts | 157° |
| 2026-05-07 00:14 | 4.09285 | -82.23016 | 34916 ft | 463 kts | 157° |
| 2026-05-07 00:14 | 4.03256 | -82.20720 | 34916 ft | 463 kts | 157° |
| 2026-05-07 00:15 | 3.97267 | -82.18439 | 34910 ft | 462 kts | 157° |
| 2026-05-07 00:15 | 3.91249 | -82.16147 | 34910 ft | 462 kts | 157° |
| 2026-05-07 00:16 | 3.85234 | -82.13856 | 34913 ft | 461 kts | 157° |
| 2026-05-07 00:16 | 3.79262 | -82.11583 | 34912 ft | 461 kts | 157° |
| 2026-05-07 00:17 | 3.73257 | -82.09297 | 34911 ft | 461 kts | 157° |
| 2026-05-07 00:17 | 3.67250 | -82.07010 | 34911 ft | 461 kts | 157° |
| 2026-05-07 00:18 | 3.61293 | -82.04743 | 34914 ft | 461 kts | 157° |
| 2026-05-07 00:18 | 3.55290 | -82.02458 | 34915 ft | 461 kts | 157° |
| 2026-05-07 00:19 | 3.49274 | -82.00174 | 34916 ft | 461 kts | 157° |
| 2026-05-07 00:19 | 3.43279 | -81.97905 | 34914 ft | 462 kts | 157° |
| 2026-05-07 00:20 | 3.37280 | -81.95636 | 34915 ft | 463 kts | 157° |
| 2026-05-07 00:20 | 3.31238 | -81.93349 | 34916 ft | 463 kts | 157° |
| 2026-05-07 00:21 | 3.25238 | -81.91077 | 34915 ft | 464 kts | 157° |
| 2026-05-07 00:21 | 3.19192 | -81.88789 | 34911 ft | 464 kts | 157° |
| 2026-05-07 00:22 | 3.13134 | -81.86495 | 34915 ft | 464 kts | 157° |
| 2026-05-07 00:22 | 3.07122 | -81.84220 | 34917 ft | 464 kts | 157° |
| 2026-05-07 00:23 | 3.01069 | -81.81930 | 34918 ft | 464 kts | 157° |
| 2026-05-07 00:23 | 2.95028 | -81.79644 | 34917 ft | 464 kts | 157° |
| 2026-05-07 00:24 | 2.89022 | -81.77372 | 34919 ft | 463 kts | 157° |
| 2026-05-07 00:24 | 2.83008 | -81.75097 | 34921 ft | 463 kts | 157° |
| 2026-05-07 00:25 | 2.76968 | -81.72812 | 34919 ft | 463 kts | 157° |
| 2026-05-07 00:25 | 2.71957 | -81.70917 | 34921 ft | 463 kts | 157° |
| 2026-05-07 00:26 | 2.64939 | -81.68263 | 34923 ft | 462 kts | 157° |
| 2026-05-07 00:26 | 2.59927 | -81.66368 | 34922 ft | 462 kts | 157° |
| 2026-05-07 00:27 | 2.53899 | -81.64089 | 34920 ft | 462 kts | 157° |
| 2026-05-07 00:27 | 2.47909 | -81.61824 | 34925 ft | 462 kts | 157° |
| 2026-05-07 00:28 | 2.41878 | -81.59545 | 34924 ft | 462 kts | 157° |
| 2026-05-07 00:28 | 2.35864 | -81.57271 | 34922 ft | 462 kts | 157° |
| 2026-05-07 00:29 | 2.29861 | -81.55003 | 34927 ft | 462 kts | 157° |
| 2026-05-07 00:30 | 2.17843 | -81.50461 | 34927 ft | 462 kts | 157° |
| 2026-05-07 00:30 | 2.11860 | -81.48200 | 34928 ft | 462 kts | 157° |
| 2026-05-07 00:31 | 2.05839 | -81.45925 | 34929 ft | 462 kts | 157° |
| 2026-05-07 00:31 | 1.99817 | -81.43650 | 34931 ft | 462 kts | 158° |
| 2026-05-07 00:32 | 1.93827 | -81.41388 | 34933 ft | 462 kts | 158° |
| 2026-05-07 00:32 | 1.87801 | -81.39111 | 34930 ft | 462 kts | 158° |
| 2026-05-07 00:33 | 1.81823 | -81.36853 | 34930 ft | 461 kts | 158° |
| 2026-05-07 00:33 | 1.75805 | -81.34580 | 34932 ft | 461 kts | 158° |
| 2026-05-07 00:34 | 1.69828 | -81.32323 | 34932 ft | 461 kts | 158° |
| 2026-05-07 00:34 | 1.63819 | -81.30054 | 34928 ft | 460 kts | 158° |
| 2026-05-07 00:35 | 1.57817 | -81.27787 | 34929 ft | 460 kts | 158° |
| 2026-05-07 00:35 | 1.51870 | -81.25541 | 34934 ft | 460 kts | 158° |
| 2026-05-07 00:36 | 1.45863 | -81.23286 | 34930 ft | 459 kts | 161° |
| 2026-05-07 00:36 | 1.39575 | -81.22217 | 34936 ft | 460 kts | 178° |
| 2026-05-07 00:37 | 1.33215 | -81.22858 | 34936 ft | 460 kts | 188° |
| 2026-05-07 00:37 | 1.26897 | -81.23891 | 34929 ft | 460 kts | 188° |
| 2026-05-07 00:38 | 1.20613 | -81.24902 | 34930 ft | 459 kts | 188° |
| 2026-05-07 00:38 | 1.14295 | -81.25881 | 34931 ft | 459 kts | 188° |
| 2026-05-07 00:39 | 1.07982 | -81.26844 | 34932 ft | 459 kts | 188° |
| 2026-05-07 00:39 | 1.01655 | -81.27806 | 34935 ft | 459 kts | 188° |
| 2026-05-07 00:40 | 0.95366 | -81.28764 | 34931 ft | 459 kts | 188° |
| 2026-05-07 00:40 | 0.89080 | -81.29723 | 34932 ft | 459 kts | 188° |
| 2026-05-07 00:41 | 0.82763 | -81.30686 | 34934 ft | 459 kts | 188° |
| 2026-05-07 00:41 | 0.76445 | -81.31649 | 34937 ft | 459 kts | 188° |
| 2026-05-07 00:42 | 0.70141 | -81.32610 | 34935 ft | 460 kts | 188° |
| 2026-05-07 00:42 | 0.63793 | -81.33578 | 34931 ft | 460 kts | 188° |
| 2026-05-07 00:43 | 0.57461 | -81.34544 | 34933 ft | 460 kts | 188° |
| 2026-05-07 00:43 | 0.51167 | -81.35503 | 34934 ft | 460 kts | 188° |
| 2026-05-07 00:44 | 0.44821 | -81.36471 | 34933 ft | 460 kts | 188° |
| 2026-05-07 00:44 | 0.38515 | -81.37432 | 34937 ft | 460 kts | 188° |
| 2026-05-07 00:45 | 0.32170 | -81.38399 | 34936 ft | 460 kts | 188° |
| 2026-05-07 00:45 | 0.25862 | -81.39361 | 34935 ft | 460 kts | 188° |
| 2026-05-07 00:46 | 0.19525 | -81.40327 | 34933 ft | 460 kts | 188° |
| 2026-05-07 00:46 | 0.13213 | -81.41289 | 34935 ft | 460 kts | 188° |
| 2026-05-07 00:47 | 0.06872 | -81.42256 | 34934 ft | 460 kts | 188° |
| 2026-05-07 00:47 | 0.00535 | -81.43222 | 34934 ft | 460 kts | 188° |
| 2026-05-07 00:48 | -0.05814 | -81.44190 | 34934 ft | 460 kts | 188° |
| 2026-05-07 00:48 | -0.12133 | -81.44682 | 34925 ft | 459 kts | 169° |
| 2026-05-07 00:49 | -0.15177 | -81.43774 | 34937 ft | 458 kts | 155° |
| 2026-05-07 00:49 | -0.17895 | -81.42114 | 34931 ft | 458 kts | 140° |
| 2026-05-07 00:49 | -0.22442 | -81.37649 | 34939 ft | 459 kts | 134° |
| 2026-05-07 00:50 | -0.26880 | -81.33055 | 34931 ft | 460 kts | 134° |
| 2026-05-07 00:50 | -0.31352 | -81.28498 | 34935 ft | 461 kts | 135° |
| 2026-05-07 00:51 | -0.35896 | -81.23926 | 34934 ft | 462 kts | 135° |
| 2026-05-07 00:51 | -0.40418 | -81.19392 | 34936 ft | 463 kts | 135° |
| 2026-05-07 00:52 | -0.44985 | -81.14812 | 34937 ft | 463 kts | 135° |
| 2026-05-07 00:52 | -0.49508 | -81.10273 | 34846 ft | 465 kts | 135° |
| 2026-05-07 00:53 | -0.51808 | -81.07965 | 34251 ft | 470 kts | 135° |
| 2026-05-07 00:53 | -0.54122 | -81.05642 | 33574 ft | 469 kts | 135° |
| 2026-05-07 00:53 | -0.56397 | -81.03359 | 32856 ft | 469 kts | 135° |
| 2026-05-07 00:53 | -0.58696 | -81.01051 | 32233 ft | 467 kts | 134° |
| 2026-05-07 00:54 | -0.60980 | -80.98758 | 31733 ft | 462 kts | 134° |
| 2026-05-07 00:54 | -0.63243 | -80.96486 | 31214 ft | 458 kts | 134° |
| 2026-05-07 00:54 | -0.65481 | -80.94239 | 30721 ft | 453 kts | 134° |
| 2026-05-07 00:54 | -0.67679 | -80.92033 | 30207 ft | 449 kts | 133° |
| 2026-05-07 00:55 | -0.69881 | -80.89823 | 29647 ft | 446 kts | 133° |
| 2026-05-07 00:55 | -0.72057 | -80.87644 | 29338 ft | 435 kts | 133° |
| 2026-05-07 00:55 | -0.74183 | -80.85520 | 28884 ft | 429 kts | 133° |
| 2026-05-07 00:55 | -0.76259 | -80.83446 | 28414 ft | 423 kts | 133° |
| 2026-05-07 00:56 | -0.78332 | -80.81375 | 27911 ft | 419 kts | 133° |
| 2026-05-07 00:56 | -0.80392 | -80.79315 | 27416 ft | 416 kts | 133° |
| 2026-05-07 00:56 | -0.82427 | -80.77280 | 26930 ft | 412 kts | 133° |
| 2026-05-07 00:56 | -0.84447 | -80.75259 | 26450 ft | 409 kts | 133° |
| 2026-05-07 00:57 | -0.86450 | -80.73255 | 25977 ft | 406 kts | 133° |
| 2026-05-07 00:57 | -0.88417 | -80.71287 | 25501 ft | 403 kts | 133° |
| 2026-05-07 00:57 | -0.90397 | -80.69306 | 25005 ft | 401 kts | 133° |
| 2026-05-07 00:57 | -0.92368 | -80.67336 | 24520 ft | 399 kts | 133° |
| 2026-05-07 00:58 | -0.94457 | -80.65494 | 24029 ft | 400 kts | 142° |
| 2026-05-07 00:58 | -0.96722 | -80.63940 | 23560 ft | 398 kts | 144° |
| 2026-05-07 00:58 | -0.99043 | -80.62413 | 23011 ft | 397 kts | 144° |
| 2026-05-07 00:58 | -1.01345 | -80.60911 | 22503 ft | 394 kts | 144° |
| 2026-05-07 00:59 | -1.05895 | -80.57925 | 21537 ft | 387 kts | 144° |
| 2026-05-07 00:59 | -1.08139 | -80.56441 | 21069 ft | 384 kts | 144° |
| 2026-05-07 00:59 | -1.10327 | -80.54988 | 20617 ft | 381 kts | 144° |
| 2026-05-07 01:00 | -1.12542 | -80.53514 | 20156 ft | 379 kts | 145° |
| 2026-05-07 01:00 | -1.14730 | -80.52055 | 19707 ft | 376 kts | 145° |
| 2026-05-07 01:00 | -1.16908 | -80.50603 | 19229 ft | 375 kts | 145° |
| 2026-05-07 01:00 | -1.19047 | -80.49178 | 18790 ft | 373 kts | 145° |
| 2026-05-07 01:01 | -1.21203 | -80.47740 | 18328 ft | 372 kts | 145° |
| 2026-05-07 01:01 | -1.23358 | -80.46302 | 17829 ft | 370 kts | 146° |
| 2026-05-07 01:01 | -1.25496 | -80.44877 | 17359 ft | 367 kts | 145° |
| 2026-05-07 01:01 | -1.27620 | -80.43461 | 16900 ft | 364 kts | 145° |
| 2026-05-07 01:02 | -1.29696 | -80.42077 | 16447 ft | 362 kts | 145° |
| 2026-05-07 01:02 | -1.31786 | -80.40684 | 16011 ft | 359 kts | 145° |
| 2026-05-07 01:02 | -1.33860 | -80.39301 | 15571 ft | 356 kts | 145° |
| 2026-05-07 01:02 | -1.35921 | -80.37927 | 15141 ft | 354 kts | 145° |
| 2026-05-07 01:03 | -1.37963 | -80.36565 | 14706 ft | 352 kts | 145° |
| 2026-05-07 01:03 | -1.39977 | -80.35222 | 14272 ft | 350 kts | 145° |
| 2026-05-07 01:03 | -1.42025 | -80.33857 | 13827 ft | 349 kts | 145° |
| 2026-05-07 01:03 | -1.44019 | -80.32527 | 13373 ft | 347 kts | 145° |
| 2026-05-07 01:04 | -1.46026 | -80.31188 | 12910 ft | 345 kts | 145° |
| 2026-05-07 01:04 | -1.48018 | -80.29859 | 12465 ft | 342 kts | 145° |
| 2026-05-07 01:04 | -1.49988 | -80.28545 | 12044 ft | 340 kts | 145° |
| 2026-05-07 01:04 | -1.51957 | -80.27232 | 11622 ft | 337 kts | 145° |
| 2026-05-07 01:05 | -1.53888 | -80.25944 | 11187 ft | 335 kts | 146° |
| 2026-05-07 01:05 | -1.55823 | -80.24654 | 10784 ft | 333 kts | 146° |
| 2026-05-07 01:05 | -1.57718 | -80.23330 | 10433 ft | 329 kts | 140° |
| 2026-05-07 01:05 | -1.59405 | -80.21839 | 10288 ft | 318 kts | 136° |
| 2026-05-07 01:06 | -1.60970 | -80.20324 | 10148 ft | 308 kts | 135° |
| 2026-05-07 01:06 | -1.62482 | -80.18843 | 10016 ft | 299 kts | 135° |
| 2026-05-07 01:06 | -1.63952 | -80.17415 | 9872 ft | 291 kts | 135° |
| 2026-05-07 01:06 | -1.65392 | -80.16031 | 9582 ft | 290 kts | 136° |
| 2026-05-07 01:07 | -1.66853 | -80.14639 | 9273 ft | 289 kts | 136° |
| 2026-05-07 01:07 | -1.68315 | -80.13254 | 8969 ft | 289 kts | 136° |
| 2026-05-07 01:07 | -1.69778 | -80.11871 | 8655 ft | 289 kts | 136° |
| 2026-05-07 01:07 | -1.71221 | -80.10509 | 8346 ft | 288 kts | 136° |
| 2026-05-07 01:08 | -1.72685 | -80.09129 | 8043 ft | 288 kts | 136° |
| 2026-05-07 01:08 | -1.74146 | -80.07753 | 7733 ft | 288 kts | 136° |
| 2026-05-07 01:08 | -1.75601 | -80.06383 | 7423 ft | 287 kts | 136° |
| 2026-05-07 01:08 | -1.77057 | -80.05012 | 7119 ft | 286 kts | 137° |
| 2026-05-07 01:09 | -1.78511 | -80.03642 | 6787 ft | 287 kts | 137° |
| 2026-05-07 01:09 | -1.79947 | -80.02290 | 6482 ft | 286 kts | 137° |
| 2026-05-07 01:09 | -1.81396 | -80.00925 | 6157 ft | 284 kts | 137° |
| 2026-05-07 01:09 | -1.82828 | -79.99576 | 5846 ft | 281 kts | 137° |
| 2026-05-07 01:10 | -1.84233 | -79.98252 | 5551 ft | 279 kts | 137° |
| 2026-05-07 01:10 | -1.85641 | -79.96924 | 5254 ft | 278 kts | 137° |
| 2026-05-07 01:10 | -1.87048 | -79.95598 | 4965 ft | 276 kts | 137° |
| 2026-05-07 01:10 | -1.88446 | -79.94280 | 4678 ft | 275 kts | 137° |
| 2026-05-07 01:11 | -1.89804 | -79.93000 | 4560 ft | 266 kts | 137° |
| 2026-05-07 01:11 | -1.91140 | -79.91741 | 4373 ft | 261 kts | 137° |
| 2026-05-07 01:11 | -1.92460 | -79.90496 | 4091 ft | 260 kts | 137° |
| 2026-05-07 01:11 | -1.93775 | -79.89256 | 3830 ft | 258 kts | 137° |
| 2026-05-07 01:12 | -1.94635 | -79.88445 | 3643 ft | 254 kts | 137° |
| 2026-05-07 01:12 | -1.95920 | -79.87234 | 3171 ft | 253 kts | 137° |
| 2026-05-07 01:12 | -1.97603 | -79.85647 | 2750 ft | 242 kts | 137° |
| 2026-05-07 01:12 | -1.98792 | -79.84525 | 2470 ft | 231 kts | 137° |
| 2026-05-07 01:13 | -1.99583 | -79.83779 | 2229 ft | 231 kts | 137° |
| 2026-05-07 01:13 | -2.00763 | -79.82668 | 2173 ft | 234 kts | 137° |
| 2026-05-07 01:13 | -2.01911 | -79.81614 | 2113 ft | 217 kts | 143° |
| 2026-05-07 01:13 | -2.03259 | -79.81187 | 2031 ft | 196 kts | 189° |
| 2026-05-07 01:14 | -2.04410 | -79.81740 | 2041 ft | 175 kts | 215° |
| 2026-05-07 01:14 | -2.05414 | -79.82376 | 2011 ft | 172 kts | 211° |
| 2026-05-07 01:14 | -2.06449 | -79.82977 | 1825 ft | 167 kts | 211° |
| 2026-05-07 01:14 | -2.07405 | -79.83531 | 1643 ft | 152 kts | 211° |
| 2026-05-07 01:15 | -2.08286 | -79.84042 | 1473 ft | 142 kts | 211° |
| 2026-05-07 01:15 | -2.09142 | -79.84539 | 1271 ft | 143 kts | 210° |
| 2026-05-07 01:15 | -2.10010 | -79.85043 | 1085 ft | 144 kts | 210° |
| 2026-05-07 01:15 | -2.10877 | -79.85546 | 913 ft | 144 kts | 210° |
| 2026-05-07 01:16 | -2.11734 | -79.86044 | 765 ft | 141 kts | 209° |
| 2026-05-07 01:16 | -2.12581 | -79.86532 | 578 ft | 139 kts | 209° |
| 2026-05-07 01:16 | -2.13392 | -79.87008 | 399 ft | 135 kts | 211° |
| 2026-05-07 01:16 | -2.14201 | -79.87475 | 221 ft | 134 kts | 210° |
| 2026-05-07 01:17 | -2.15012 | -79.87943 | 48 ft | 134 kts | 210° |
| 2026-05-07 01:17 | -2.15743 | -79.88366 | 28 ft | 102 kts | 210° |
| 2026-05-07 01:17 | -2.16173 | -79.88614 | 28 ft | 47 kts | 210° |
| 2026-05-07 01:17 | -2.16411 | -79.88749 | 27 ft | 30 kts | 209° |
| 2026-05-07 01:18 | -2.16584 | -79.88850 | 27 ft | 28 kts | 210° |
| 2026-05-07 01:18 | -2.16708 | -79.88931 | 26 ft | 17 kts | 233° |
| 2026-05-07 01:18 | -2.16665 | -79.89002 | 27 ft | 13 kts | 11° |
| 2026-05-07 01:18 | -2.16588 | -79.88963 | 27 ft | 12 kts | 31° |
| 2026-05-07 01:19 | -2.16513 | -79.88921 | 27 ft | 12 kts | 29° |
| 2026-05-07 01:19 | -2.16442 | -79.88879 | 27 ft | 12 kts | 31° |
| 2026-05-07 01:19 | -2.16372 | -79.88838 | 27 ft | 11 kts | 31° |
| 2026-05-07 01:19 | -2.16303 | -79.88798 | 27 ft | 11 kts | 30° |
| 2026-05-07 01:20 | -2.16237 | -79.88760 | 27 ft | 11 kts | 30° |
| 2026-05-07 01:20 | -2.16172 | -79.88723 | 28 ft | 11 kts | 31° |
| 2026-05-07 01:20 | -2.16111 | -79.88687 | 28 ft | 10 kts | 30° |
| 2026-05-07 01:20 | -2.16049 | -79.88652 | 28 ft | 10 kts | 31° |
| 2026-05-07 01:21 | -2.15960 | -79.88600 | 27 ft | 20 kts | 29° |
| 2026-05-07 01:21 | -2.15827 | -79.88524 | 28 ft | 22 kts | 30° |
| 2026-05-07 01:21 | -2.15693 | -79.88447 | 27 ft | 22 kts | 30° |
| 2026-05-07 01:21 | -2.15565 | -79.88373 | 27 ft | 21 kts | 30° |
| 2026-05-07 01:22 | -2.15439 | -79.88300 | 27 ft | 21 kts | 30° |
| 2026-05-07 01:22 | -2.15332 | -79.88239 | 27 ft | 12 kts | 30° |
| 2026-05-07 01:22 | -2.15259 | -79.88234 | 27 ft | 11 kts | 315° |
| 2026-05-07 01:22 | -2.15219 | -79.88302 | 28 ft | 11 kts | 298° |
| 2026-05-07 01:23 | -2.15182 | -79.88368 | 28 ft | 9 kts | 299° |
| 2026-05-07 01:23 | -2.15137 | -79.88396 | 28 ft | 8 kts | 12° |
| 2026-05-07 01:23 | -2.15087 | -79.88370 | 28 ft | 8 kts | 28° |
| 2026-05-07 01:23 | -2.15039 | -79.88343 | 28 ft | 8 kts | 30° |
| 2026-05-07 01:24 | -2.14993 | -79.88316 | 28 ft | 8 kts | 30° |
| 2026-05-07 01:24 | -2.14947 | -79.88291 | 28 ft | 7 kts | 29° |
| 2026-05-07 01:24 | -2.14904 | -79.88267 | 28 ft | 7 kts | 30° |
| 2026-05-07 01:24 | -2.14874 | -79.88254 | 28 ft | 4 kts | 353° |
| 2026-05-07 01:25 | -2.14853 | -79.88271 | 28 ft | 4 kts | 307° |
| 2026-05-07 01:25 | -2.14840 | -79.88294 | 28 ft | 4 kts | 300° |
| 2026-05-07 01:25 | -2.14834 | -79.88304 | 28 ft | 0 kts | 300° |
| 2026-05-07 01:28 | -2.14787 | -79.88270 | 28 ft | 0 kts | 300° |
| 2026-05-07 01:28 | -2.14787 | -79.88269 | 28 ft | 0 kts | 300° |
| 2026-05-07 01:28 | -2.14787 | -79.88270 | 28 ft | 0 kts | 300° |
| 2026-05-07 01:29 | -2.14850 | -79.88306 | 28 ft | 0 kts | 300° |